createdAt,value
2023-02-27T00:01:01.724Z,3.30
2023-02-27T00:03:29.077Z,3.30
2023-02-27T00:05:57.090Z,3.30
2023-02-27T00:08:25.623Z,3.30
2023-02-27T00:10:53.115Z,3.20
2023-02-27T00:13:20.720Z,3.20
2023-02-27T00:15:50.471Z,3.20
2023-02-27T00:18:18.051Z,3.10
2023-02-27T00:20:45.344Z,3.10
2023-02-27T00:23:12.559Z,3.10
2023-02-27T00:25:39.854Z,3.00
2023-02-27T00:28:07.124Z,3.00
2023-02-27T00:30:34.934Z,3.00
2023-02-27T00:33:02.073Z,2.90
2023-02-27T00:35:29.320Z,2.90
2023-02-27T00:37:56.499Z,2.90
2023-02-27T00:40:25.561Z,2.90
2023-02-27T00:42:53.583Z,2.80
2023-02-27T00:45:21.037Z,2.80
2023-02-27T00:47:48.405Z,2.70
2023-02-27T00:50:15.980Z,2.70
2023-02-27T00:52:43.332Z,2.70
2023-02-27T00:55:11.044Z,2.70
2023-02-27T00:57:39.441Z,2.60
2023-02-27T01:00:11.143Z,2.60
2023-02-27T01:02:39.128Z,2.60
2023-02-27T01:05:07.176Z,2.60
2023-02-27T01:07:34.490Z,2.60
2023-02-27T01:10:02.139Z,2.50
2023-02-27T01:12:29.420Z,2.50
2023-02-27T01:14:56.905Z,2.50
2023-02-27T01:17:24.280Z,2.50
2023-02-27T01:19:51.507Z,2.50
2023-02-27T01:22:18.664Z,2.50
2023-02-27T01:24:45.914Z,2.50
2023-02-27T01:27:13.118Z,2.40
2023-02-27T01:29:41.963Z,2.40
2023-02-27T01:32:09.503Z,2.40
2023-02-27T01:34:36.856Z,2.40
2023-02-27T01:37:04.237Z,2.40
2023-02-27T01:39:33.180Z,2.40
2023-02-27T01:42:01.158Z,2.40
2023-02-27T01:44:30.861Z,2.40
2023-02-27T01:46:58.186Z,2.40
2023-02-27T01:49:32.990Z,2.30
2023-02-27T01:52:11.185Z,2.40
2023-02-27T01:54:42.064Z,2.40
2023-02-27T01:57:10.157Z,2.40
2023-02-27T01:59:42.051Z,2.40
2023-02-27T02:02:21.214Z,2.30
2023-02-27T02:04:51.183Z,2.30
2023-02-27T02:07:21.483Z,2.30
2023-02-27T02:09:59.555Z,2.30
2023-02-27T02:12:34.977Z,2.30
2023-02-27T02:15:02.812Z,2.20
2023-02-27T02:17:45.949Z,2.20
2023-02-27T02:20:48.128Z,2.20
2023-02-27T02:23:36.829Z,2.10
2023-02-27T02:26:50.586Z,2.10
2023-02-27T02:30:02.772Z,2.10
2023-02-27T02:33:16.309Z,2.00
2023-02-27T02:36:28.066Z,2.00
2023-02-27T02:39:42.863Z,2.00
2023-02-27T02:42:44.350Z,2.00
2023-02-27T02:45:28.248Z,1.90
2023-02-27T02:48:45.253Z,1.90
2023-02-27T02:51:31.681Z,1.90
2023-02-27T02:54:20.677Z,1.80
2023-02-27T02:56:59.914Z,1.80
2023-02-27T02:59:36.255Z,1.80
2023-02-27T03:02:22.066Z,1.70
2023-02-27T03:05:04.282Z,1.70
2023-02-27T03:07:36.985Z,1.70
2023-02-27T03:10:16.954Z,1.70
2023-02-27T03:12:52.502Z,1.60
2023-02-27T03:15:40.985Z,1.60
2023-02-27T03:18:20.682Z,1.60
2023-02-27T03:20:59.015Z,1.60
2023-02-27T03:23:35.571Z,1.60
2023-02-27T03:26:05.829Z,1.50
2023-02-27T03:28:39.850Z,1.50
2023-02-27T03:31:33.145Z,1.50
2023-02-27T03:34:13.832Z,1.50
2023-02-27T03:36:58.815Z,1.50
2023-02-27T03:39:45.197Z,1.40
2023-02-27T03:42:43.885Z,1.40
2023-02-27T03:45:13.737Z,1.40
2023-02-27T03:47:41.122Z,1.40
2023-02-27T03:50:12.604Z,1.30
2023-02-27T03:52:40.070Z,1.30
2023-02-27T03:55:16.750Z,1.30
2023-02-27T03:57:48.250Z,1.30
2023-02-27T04:00:21.275Z,1.30
2023-02-27T04:02:51.739Z,1.30
2023-02-27T04:05:20.857Z,1.30
2023-02-27T04:08:51.543Z,1.30
2023-02-27T04:11:40.316Z,1.20
2023-02-27T04:14:18.085Z,1.20
2023-02-27T04:16:53.934Z,1.10
2023-02-27T04:19:36.046Z,1.00
2023-02-27T04:22:27.204Z,1.00
2023-02-27T04:25:39.414Z,0.90
2023-02-27T04:28:17.637Z,0.80
2023-02-27T04:31:19.312Z,0.80
2023-02-27T04:33:57.394Z,0.70
2023-02-27T04:37:07.393Z,0.70
2023-02-27T04:39:56.725Z,0.60
2023-02-27T04:42:48.422Z,0.50
2023-02-27T04:45:21.708Z,0.40
2023-02-27T04:48:04.923Z,0.40
2023-02-27T04:50:48.744Z,0.40
2023-02-27T04:53:44.495Z,0.30
2023-02-27T04:56:30.055Z,0.20
2023-02-27T04:59:15.454Z,0.20
2023-02-27T05:01:54.246Z,0.10
2023-02-27T05:04:27.054Z,0.10
2023-02-27T05:06:56.916Z,0.10
2023-02-27T05:10:04.349Z,0.00
2023-02-27T05:12:47.666Z,0.00
2023-02-27T05:15:28.067Z,-0.10
2023-02-27T05:18:09.770Z,-0.10
2023-02-27T05:21:01.045Z,-0.10
2023-02-27T05:23:38.651Z,-0.10
2023-02-27T05:26:24.241Z,-0.10
2023-02-27T05:28:59.166Z,-0.10
2023-02-27T05:31:33.298Z,-0.10
2023-02-27T05:34:10.188Z,-0.20
2023-02-27T05:37:00.135Z,-0.20
2023-02-27T05:39:35.060Z,-0.20
2023-02-27T05:42:11.899Z,-0.20
2023-02-27T05:44:49.540Z,-0.20
2023-02-27T05:47:26.859Z,-0.30
2023-02-27T05:50:13.140Z,-0.30
2023-02-27T05:52:43.617Z,-0.30
2023-02-27T05:55:34.126Z,-0.30
2023-02-27T05:58:09.884Z,-0.30
2023-02-27T06:00:54.969Z,-0.30
2023-02-27T06:03:23.502Z,-0.30
2023-02-27T06:05:57.152Z,-0.30
2023-02-27T06:08:25.238Z,-0.30
2023-02-27T06:10:52.628Z,-0.30
2023-02-27T06:13:19.908Z,-0.30
2023-02-27T06:15:47.470Z,-0.30
2023-02-27T06:18:16.879Z,-0.30
2023-02-27T06:20:45.589Z,-0.20
2023-02-27T06:23:14.032Z,-0.20
2023-02-27T06:25:42.469Z,-0.20
2023-02-27T06:28:10.883Z,-0.10
2023-02-27T06:30:39.220Z,-0.10
2023-02-27T06:33:06.564Z,-0.10
2023-02-27T06:35:34.132Z,-0.10
2023-02-27T06:38:01.791Z,-0.10
2023-02-27T06:40:29.445Z,0.00
2023-02-27T06:42:57.063Z,0.00
2023-02-27T06:45:24.533Z,0.00
2023-02-27T06:47:51.808Z,0.00
2023-02-27T06:50:19.285Z,0.00
2023-02-27T06:53:05.368Z,0.00
2023-02-27T06:55:33.444Z,0.10
2023-02-27T06:58:00.600Z,0.10
2023-02-27T07:00:28.042Z,0.20
2023-02-27T07:02:55.404Z,0.20
2023-02-27T07:05:22.861Z,0.30
2023-02-27T07:07:50.046Z,0.40
2023-02-27T07:10:17.566Z,0.50
2023-02-27T07:12:45.014Z,0.50
2023-02-27T07:15:12.461Z,0.60
2023-02-27T07:17:40.017Z,0.60
2023-02-27T07:20:10.936Z,0.70
2023-02-27T07:22:57.477Z,0.80
2023-02-27T07:25:25.150Z,0.90
2023-02-27T07:28:12.534Z,1.00
2023-02-27T07:30:59.088Z,1.00
2023-02-27T07:33:26.468Z,1.10
2023-02-27T07:35:53.764Z,1.10
2023-02-27T07:38:22.624Z,1.20
2023-02-27T07:40:56.174Z,1.20
2023-02-27T07:43:42.174Z,1.30
2023-02-27T07:46:10.519Z,1.40
2023-02-27T07:48:39.847Z,1.40
2023-02-27T07:51:07.386Z,1.50
2023-02-27T07:53:34.835Z,1.50
2023-02-27T07:56:02.389Z,1.60
2023-02-27T07:58:30.004Z,1.70
2023-02-27T08:05:08.677Z,1.80
2023-02-27T08:07:36.819Z,1.90
2023-02-27T08:10:06.175Z,2.00
2023-02-27T08:12:33.740Z,2.00
2023-02-27T08:19:14.513Z,2.10
2023-02-27T08:21:42.072Z,2.20
2023-02-27T08:25:08.131Z,2.20
2023-02-27T08:27:37.048Z,2.30
2023-02-27T08:34:16.622Z,2.40
2023-02-27T08:36:44.088Z,2.50
2023-02-27T08:39:11.435Z,2.60
2023-02-27T08:42:18.429Z,2.70
2023-02-27T08:44:45.588Z,2.70
2023-02-27T08:47:13.119Z,2.80
2023-02-27T08:49:40.626Z,2.90
2023-02-27T08:52:10.184Z,3.00
2023-02-27T08:54:39.856Z,3.00
2023-02-27T08:58:29.499Z,3.10
2023-02-27T09:00:59.477Z,3.20
2023-02-27T09:07:36.982Z,3.30
2023-02-27T09:14:32.960Z,3.50
2023-02-27T09:17:00.156Z,3.60
2023-02-27T09:19:27.984Z,3.70
2023-02-27T09:21:55.332Z,3.80
2023-02-27T09:24:22.793Z,3.80
2023-02-27T09:26:53.439Z,3.90
2023-02-27T09:29:21.503Z,4.00
2023-02-27T09:31:48.859Z,4.10
2023-02-27T09:34:16.240Z,4.20
2023-02-27T09:36:43.602Z,4.20
2023-02-27T09:39:48.133Z,4.30
2023-02-27T09:42:33.660Z,4.40
2023-02-27T09:45:07.009Z,4.50
2023-02-27T09:47:41.233Z,4.60
2023-02-27T09:50:27.430Z,4.80
2023-02-27T09:52:54.823Z,4.90
2023-02-27T09:55:32.128Z,4.90
2023-02-27T09:58:08.186Z,5.10
2023-02-27T10:00:44.224Z,5.20
2023-02-27T10:03:36.027Z,5.30
2023-02-27T10:06:48.930Z,5.40
2023-02-27T10:09:42.348Z,5.50
2023-02-27T10:12:35.313Z,5.70
2023-02-27T10:15:32.567Z,5.80
2023-02-27T10:18:23.951Z,6.00
2023-02-27T10:21:07.270Z,6.40
2023-02-27T10:24:15.714Z,6.80
2023-02-27T10:26:46.158Z,7.20
2023-02-27T10:29:30.655Z,7.60
2023-02-27T10:32:07.312Z,8.00
2023-02-27T10:34:38.994Z,8.40
2023-02-27T10:37:08.358Z,8.70
2023-02-27T10:40:07.415Z,9.00
2023-02-27T10:42:41.778Z,9.30
2023-02-27T10:45:16.260Z,9.70
2023-02-27T10:47:46.190Z,9.90
2023-02-27T10:50:33.999Z,10.10
2023-02-27T10:53:08.110Z,10.40
2023-02-27T10:56:07.226Z,10.60
2023-02-27T10:59:26.366Z,10.70
2023-02-27T11:02:21.133Z,10.90
2023-02-27T11:04:59.166Z,11.10
2023-02-27T11:07:48.908Z,11.20
2023-02-27T11:10:26.967Z,11.20
2023-02-27T11:13:18.814Z,11.10
2023-02-27T11:16:14.070Z,11.00
2023-02-27T11:18:54.674Z,10.90
2023-02-27T11:21:29.844Z,10.90
2023-02-27T11:24:17.858Z,11.00
2023-02-27T11:26:58.492Z,11.30
2023-02-27T11:29:26.573Z,11.60
2023-02-27T11:31:57.273Z,11.90
2023-02-27T11:34:32.200Z,12.10
2023-02-27T11:37:32.808Z,12.30
2023-02-27T11:40:19.741Z,12.60
2023-02-27T11:42:56.675Z,12.90
2023-02-27T11:46:04.843Z,13.10
2023-02-27T11:48:37.670Z,13.20
2023-02-27T11:52:00.913Z,13.10
2023-02-27T11:54:53.139Z,12.80
2023-02-27T11:57:40.283Z,12.40
2023-02-27T12:00:26.684Z,12.10
2023-02-27T12:03:25.338Z,11.90
2023-02-27T12:06:04.969Z,11.60
2023-02-27T12:08:55.768Z,11.40
2023-02-27T12:11:33.279Z,11.20
2023-02-27T12:14:39.485Z,11.00
2023-02-27T12:17:12.464Z,10.90
2023-02-27T12:19:52.776Z,10.70
2023-02-27T12:22:35.795Z,10.70
2023-02-27T12:25:20.961Z,10.70
2023-02-27T12:28:13.737Z,10.70
2023-02-27T12:30:56.015Z,10.70
2023-02-27T12:34:09.208Z,10.70
2023-02-27T12:36:36.442Z,10.80
2023-02-27T12:39:04.975Z,10.90
2023-02-27T12:41:44.229Z,11.00
2023-02-27T12:44:51.621Z,11.20
2023-02-27T12:52:24.814Z,11.30
2023-02-27T12:55:05.202Z,11.10
2023-02-27T12:57:41.145Z,11.00
2023-02-27T13:00:23.166Z,10.90
2023-02-27T13:03:29.048Z,10.80
2023-02-27T13:06:27.341Z,10.70
2023-02-27T13:09:50.912Z,10.60
2023-02-27T13:12:26.336Z,10.50
2023-02-27T13:15:30.303Z,10.50
2023-02-27T13:18:32.764Z,10.50
2023-02-27T13:21:44.984Z,10.50
2023-02-27T13:24:33.742Z,10.40
2023-02-27T13:27:25.106Z,10.30
2023-02-27T13:30:21.301Z,10.20
2023-02-27T13:33:06.707Z,10.20
2023-02-27T13:36:11.763Z,10.20
2023-02-27T13:38:46.197Z,10.20
2023-02-27T13:41:25.204Z,10.20
2023-02-27T13:44:40.654Z,10.20
2023-02-27T13:47:29.531Z,10.10
2023-02-27T13:50:22.224Z,10.10
2023-02-27T13:52:49.923Z,10.00
2023-02-27T13:55:43.676Z,10.00
2023-02-27T13:58:18.960Z,10.00
2023-02-27T14:01:00.392Z,10.00
2023-02-27T14:07:35.911Z,10.20
2023-02-27T14:10:23.957Z,10.60
2023-02-27T14:14:08.385Z,10.70
2023-02-27T14:16:39.124Z,10.70
2023-02-27T14:19:24.360Z,10.70
2023-02-27T14:22:12.592Z,10.70
2023-02-27T14:25:00.998Z,10.80
2023-02-27T14:27:57.126Z,11.00
2023-02-27T14:30:41.017Z,11.20
2023-02-27T14:33:23.993Z,11.20
2023-02-27T14:36:04.502Z,11.30
2023-02-27T14:38:34.518Z,11.20
2023-02-27T14:41:35.102Z,11.20
2023-02-27T14:44:04.418Z,11.30
2023-02-27T14:46:38.765Z,11.50
2023-02-27T14:49:36.788Z,11.70
2023-02-27T14:52:21.600Z,12.00
2023-02-27T14:54:50.902Z,12.20
2023-02-27T14:57:29.278Z,12.30
2023-02-27T14:59:56.705Z,12.20
2023-02-27T15:02:27.490Z,12.10
2023-02-27T15:05:04.117Z,11.90
2023-02-27T15:07:38.486Z,11.70
2023-02-27T15:10:10.238Z,11.70
2023-02-27T15:12:40.206Z,11.70
2023-02-27T15:15:26.148Z,11.70
2023-02-27T15:17:56.119Z,11.70
2023-02-27T15:20:35.041Z,11.70
2023-02-27T15:23:28.802Z,11.50
2023-02-27T15:26:01.025Z,11.30
2023-02-27T15:28:37.659Z,11.20
2023-02-27T15:31:07.572Z,11.10
2023-02-27T15:34:14.441Z,11.00
2023-02-27T15:36:51.014Z,11.10
2023-02-27T15:39:25.996Z,11.10
2023-02-27T15:42:01.373Z,11.10
2023-02-27T15:44:44.495Z,11.10
2023-02-27T15:47:37.118Z,11.00
2023-02-27T15:50:25.724Z,11.10
2023-02-27T15:53:15.216Z,11.10
2023-02-27T15:55:53.650Z,11.10
2023-02-27T15:58:54.585Z,11.10
2023-02-27T16:01:32.569Z,11.00
2023-02-27T16:04:05.354Z,10.90
2023-02-27T16:06:37.851Z,10.80
2023-02-27T16:09:19.933Z,10.70
2023-02-27T16:11:48.446Z,10.50
2023-02-27T16:14:45.188Z,10.40
2023-02-27T16:17:33.563Z,10.20
2023-02-27T16:20:29.856Z,10.10
2023-02-27T16:23:16.444Z,9.90
2023-02-27T16:26:21.105Z,9.70
2023-02-27T16:29:00.195Z,9.60
2023-02-27T16:31:41.163Z,9.40
2023-02-27T16:34:14.573Z,9.20
2023-02-27T16:36:52.065Z,9.10
2023-02-27T16:39:19.276Z,9.00
2023-02-27T16:41:46.521Z,8.80
2023-02-27T16:44:14.040Z,8.80
2023-02-27T16:46:41.592Z,8.70
2023-02-27T16:49:22.513Z,8.60
2023-02-27T16:51:50.608Z,8.50
2023-02-27T16:54:19.487Z,8.50
2023-02-27T16:56:50.192Z,8.40
2023-02-27T16:59:28.239Z,8.40
2023-02-27T17:02:10.041Z,8.30
2023-02-27T17:04:39.710Z,8.20
2023-02-27T17:07:07.643Z,8.20
2023-02-27T17:09:36.872Z,8.10
2023-02-27T17:12:04.283Z,8.10
2023-02-27T17:14:31.413Z,8.00
2023-02-27T17:17:01.705Z,8.00
2023-02-27T17:19:29.177Z,7.90
2023-02-27T17:21:56.836Z,7.90
2023-02-27T17:24:24.761Z,7.90
2023-02-27T17:26:52.676Z,7.80
2023-02-27T17:29:20.848Z,7.80
2023-02-27T17:31:49.143Z,7.80
2023-02-27T17:34:17.314Z,7.70
2023-02-27T17:36:44.774Z,7.70
2023-02-27T17:40:08.765Z,7.70
2023-02-27T17:42:40.086Z,7.70
2023-02-27T17:45:09.019Z,7.70
2023-02-27T17:47:36.485Z,7.70
2023-02-27T17:50:05.558Z,7.70
2023-02-27T17:52:35.445Z,7.70
2023-02-27T17:55:03.745Z,7.70
2023-02-27T17:57:30.987Z,7.60
2023-02-27T17:59:59.357Z,7.60
2023-02-27T18:02:26.720Z,7.60
2023-02-27T18:04:53.867Z,7.50
2023-02-27T18:07:21.028Z,7.50
2023-02-27T18:09:48.318Z,7.40
2023-02-27T18:12:18.230Z,7.40
2023-02-27T18:14:45.635Z,7.40
2023-02-27T18:17:13.464Z,7.30
2023-02-27T18:19:42.365Z,7.30
2023-02-27T18:22:11.995Z,7.30
2023-02-27T18:24:39.414Z,7.20
2023-02-27T18:27:08.861Z,7.20
2023-02-27T18:29:37.010Z,7.10
2023-02-27T18:32:04.721Z,7.00
2023-02-27T18:34:32.124Z,7.00
2023-02-27T18:36:59.391Z,7.00
2023-02-27T18:39:26.734Z,6.90
2023-02-27T18:41:53.897Z,6.90
2023-02-27T18:44:21.174Z,6.90
2023-02-27T18:46:48.460Z,6.80
2023-02-27T18:49:21.714Z,6.70
2023-02-27T18:51:49.092Z,6.70
2023-02-27T18:54:16.635Z,6.70
2023-02-27T18:56:43.816Z,6.60
2023-02-27T18:59:12.221Z,6.60
2023-02-27T19:01:39.561Z,6.60
2023-02-27T19:04:08.368Z,6.60
2023-02-27T19:06:42.274Z,6.50
2023-02-27T19:09:13.319Z,6.50
2023-02-27T19:11:40.490Z,6.50
2023-02-27T19:14:12.145Z,6.40
2023-02-27T19:16:40.100Z,6.40
2023-02-27T19:19:10.142Z,6.40
2023-02-27T19:21:40.328Z,6.30
2023-02-27T19:24:09.491Z,6.30
2023-02-27T19:26:36.793Z,6.20
2023-02-27T19:29:05.573Z,6.10
2023-02-27T19:32:10.533Z,6.10
2023-02-27T19:34:37.802Z,6.10
2023-02-27T19:37:07.978Z,6.00
2023-02-27T19:39:35.324Z,6.00
2023-02-27T19:42:03.000Z,5.90
2023-02-27T19:44:30.335Z,5.90
2023-02-27T19:46:57.669Z,5.80
2023-02-27T19:49:24.884Z,5.80
2023-02-27T19:51:52.227Z,5.70
2023-02-27T19:54:19.711Z,5.70
2023-02-27T19:56:47.205Z,5.70
2023-02-27T19:59:15.720Z,5.60
2023-02-27T20:01:42.936Z,5.60
2023-02-27T20:04:11.613Z,5.60
2023-02-27T20:06:44.973Z,5.50
2023-02-27T20:09:49.946Z,5.50
2023-02-27T20:12:17.227Z,5.50
2023-02-27T20:14:44.714Z,5.50
2023-02-27T20:17:12.318Z,5.40
2023-02-27T20:19:39.501Z,5.40
2023-02-27T20:22:06.698Z,5.40
2023-02-27T20:24:33.991Z,5.30
2023-02-27T20:27:01.504Z,5.30
2023-02-27T20:29:28.921Z,5.30
2023-02-27T20:31:59.309Z,5.30
2023-02-27T20:34:27.198Z,5.20
2023-02-27T20:36:56.259Z,5.20
2023-02-27T20:39:24.926Z,5.10
2023-02-27T20:41:52.333Z,5.10
2023-02-27T20:44:19.779Z,5.10
2023-02-27T20:46:49.251Z,5.00
2023-02-27T20:49:17.435Z,5.00
2023-02-27T20:51:45.187Z,4.90
2023-02-27T20:54:16.910Z,4.90
2023-02-27T20:56:44.370Z,4.80
2023-02-27T20:59:17.073Z,4.80
2023-02-27T21:01:52.776Z,4.70
2023-02-27T21:04:43.379Z,4.70
2023-02-27T21:07:17.714Z,4.70
2023-02-27T21:11:06.768Z,4.60
2023-02-27T21:13:33.996Z,4.60
2023-02-27T21:16:01.185Z,4.50
2023-02-27T21:18:28.822Z,4.50
2023-02-27T21:20:58.295Z,4.40
2023-02-27T21:23:25.590Z,4.40
2023-02-27T21:25:52.783Z,4.30
2023-02-27T21:28:23.112Z,4.30
2023-02-27T21:30:54.688Z,4.20
2023-02-27T21:33:22.898Z,4.20
2023-02-27T21:35:50.186Z,4.10
2023-02-27T21:38:17.339Z,4.10
2023-02-27T21:40:44.502Z,4.00
2023-02-27T21:43:11.874Z,4.00
2023-02-27T21:45:44.146Z,4.00
2023-02-27T21:48:12.035Z,4.00
2023-02-27T21:50:39.853Z,3.90
2023-02-27T21:53:07.144Z,3.90
2023-02-27T21:55:35.383Z,3.80
2023-02-27T21:58:04.100Z,3.80
2023-02-27T22:00:33.718Z,3.70
2023-02-27T22:03:01.138Z,3.70
2023-02-27T22:05:28.404Z,3.70
2023-02-27T22:08:02.879Z,3.60
2023-02-27T22:10:30.043Z,3.60
2023-02-27T22:12:57.238Z,3.60
2023-02-27T22:15:24.480Z,3.60
2023-02-27T22:17:54.789Z,3.60
2023-02-27T22:20:22.032Z,3.60
2023-02-27T22:22:49.206Z,3.50
2023-02-27T22:25:16.436Z,3.60
2023-02-27T22:27:43.696Z,3.60
2023-02-27T22:30:12.078Z,3.60
2023-02-27T22:32:40.975Z,3.60
2023-02-27T22:35:08.901Z,3.50
2023-02-27T22:37:36.093Z,3.60
2023-02-27T22:40:04.249Z,3.60
2023-02-27T22:42:31.473Z,3.50
2023-02-27T22:44:58.657Z,3.50
2023-02-27T22:47:25.921Z,3.50
2023-02-27T22:50:12.335Z,3.50
2023-02-27T22:52:39.519Z,3.50
2023-02-27T22:55:07.472Z,3.50
2023-02-27T22:57:34.588Z,3.50
2023-02-27T23:00:20.592Z,3.50
2023-02-27T23:02:47.675Z,3.50
2023-02-27T23:05:15.283Z,3.50
2023-02-27T23:07:51.517Z,3.50
2023-02-27T23:10:18.857Z,3.50
2023-02-27T23:12:46.051Z,3.50
2023-02-27T23:15:13.409Z,3.40
2023-02-27T23:17:52.956Z,3.40
2023-02-27T23:20:25.426Z,3.40
2023-02-27T23:22:53.200Z,3.40
2023-02-27T23:25:21.169Z,3.40
2023-02-27T23:27:48.348Z,3.40
2023-02-27T23:30:15.582Z,3.40
2023-02-27T23:32:45.941Z,3.40
2023-02-27T23:35:15.131Z,3.40
2023-02-27T23:37:42.578Z,3.40
2023-02-27T23:40:12.032Z,3.40
2023-02-27T23:42:39.159Z,3.40
2023-02-27T23:45:27.243Z,3.40
2023-02-27T23:47:57.952Z,3.40
2023-02-27T23:50:43.423Z,3.40
2023-02-27T23:53:13.561Z,3.30
2023-02-27T23:55:41.622Z,3.30
2023-02-27T23:58:19.072Z,3.30
